createdAt,value
2019-02-17T00:00:21.449Z,3.18
2019-02-17T00:02:52.083Z,3.10
2019-02-17T00:05:22.565Z,3.11
2019-02-17T00:07:53.044Z,3.02
2019-02-17T00:10:23.570Z,2.97
2019-02-17T00:12:54.114Z,2.93
2019-02-17T00:15:24.578Z,2.82
2019-02-17T00:17:55.103Z,2.80
2019-02-17T00:20:25.572Z,2.81
2019-02-17T00:22:56.087Z,2.80
2019-02-17T00:25:26.549Z,2.85
2019-02-17T00:27:57.092Z,2.84
2019-02-17T00:30:27.558Z,2.76
2019-02-17T00:32:58.021Z,2.62
2019-02-17T00:35:28.521Z,2.52
2019-02-17T00:37:59.050Z,2.52
2019-02-17T00:40:29.521Z,2.48
2019-02-17T00:43:00.030Z,2.35
2019-02-17T00:45:30.548Z,2.42
2019-02-17T00:48:01.018Z,2.42
2019-02-17T00:50:31.582Z,2.33
2019-02-17T00:53:02.102Z,2.33
2019-02-17T00:55:32.570Z,2.08
2019-02-17T00:58:03.036Z,2.18
2019-02-17T01:00:33.526Z,2.30
2019-02-17T01:03:04.098Z,2.17
2019-02-17T01:05:34.616Z,2.17
2019-02-17T01:08:05.213Z,2.15
2019-02-17T01:10:35.729Z,2.26
2019-02-17T01:13:06.265Z,2.23
2019-02-17T01:15:36.802Z,2.23
2019-02-17T01:18:07.278Z,2.17
2019-02-17T01:20:37.804Z,2.17
2019-02-17T01:23:08.374Z,2.20
2019-02-17T01:25:38.828Z,2.20
2019-02-17T01:28:09.342Z,2.01
2019-02-17T01:30:39.842Z,1.79
2019-02-17T01:33:10.361Z,1.94
2019-02-17T01:35:40.901Z,1.94
2019-02-17T01:38:11.363Z,1.81
2019-02-17T01:40:41.827Z,1.81
2019-02-17T01:43:12.356Z,2.02
2019-02-17T01:45:42.834Z,2.02
2019-02-17T01:48:13.344Z,1.94
2019-02-17T01:50:43.810Z,2.29
2019-02-17T01:53:14.438Z,2.29
2019-02-17T01:55:46.967Z,2.35
2019-02-17T01:58:17.121Z,2.44
2019-02-17T02:00:47.711Z,2.44
2019-02-17T02:03:18.249Z,2.43
2019-02-17T02:05:48.722Z,2.47
2019-02-17T02:08:19.229Z,2.47
2019-02-17T02:10:49.693Z,2.43
2019-02-17T02:13:20.205Z,2.43
2019-02-17T02:15:50.717Z,2.42
2019-02-17T02:18:21.235Z,2.43
2019-02-17T02:20:51.697Z,2.42
2019-02-17T02:23:22.219Z,2.37
2019-02-17T02:25:52.854Z,2.41
2019-02-17T02:28:23.327Z,2.40
2019-02-17T02:30:53.793Z,2.38
2019-02-17T02:33:24.304Z,2.36
2019-02-17T02:35:54.826Z,2.36
2019-02-17T02:38:25.341Z,2.36
2019-02-17T02:40:55.866Z,2.36
2019-02-17T02:43:26.339Z,2.36
2019-02-17T02:45:56.810Z,2.36
2019-02-17T02:48:27.273Z,2.33
2019-02-17T02:50:57.756Z,2.30
2019-02-17T02:53:28.221Z,2.31
2019-02-17T02:55:58.721Z,2.30
2019-02-17T02:58:29.224Z,2.28
2019-02-17T03:00:59.723Z,2.22
2019-02-17T03:03:30.190Z,2.27
2019-02-17T03:06:06.972Z,2.27
2019-02-17T03:08:37.485Z,2.24
2019-02-17T03:11:07.954Z,2.21
2019-02-17T03:13:38.470Z,2.21
2019-02-17T03:16:08.962Z,2.17
2019-02-17T03:18:39.437Z,2.18
2019-02-17T03:21:09.969Z,2.19
2019-02-17T03:23:40.477Z,2.19
2019-02-17T03:26:10.971Z,2.19
2019-02-17T03:28:41.469Z,2.17
2019-02-17T03:31:12.048Z,2.17
2019-02-17T03:33:42.563Z,2.12
2019-02-17T03:36:13.316Z,2.12
2019-02-17T03:38:43.781Z,2.14
2019-02-17T03:41:14.284Z,2.14
2019-02-17T03:43:44.783Z,2.11
2019-02-17T03:46:15.250Z,2.10
2019-02-17T03:48:45.858Z,2.04
2019-02-17T03:51:16.325Z,1.97
2019-02-17T03:53:46.828Z,1.97
2019-02-17T03:56:17.305Z,2.01
2019-02-17T03:58:47.868Z,2.04
2019-02-17T04:01:18.347Z,2.04
2019-02-17T04:03:48.858Z,2.02
2019-02-17T04:06:19.542Z,2.02
2019-02-17T04:08:50.057Z,1.98
2019-02-17T04:11:20.563Z,1.96
2019-02-17T04:13:51.039Z,1.97
2019-02-17T04:16:21.502Z,1.96
2019-02-17T04:18:52.012Z,1.93
2019-02-17T04:21:22.485Z,1.93
2019-02-17T04:23:53.009Z,1.94
2019-02-17T04:26:23.483Z,1.94
2019-02-17T04:28:53.997Z,1.94
2019-02-17T04:31:24.461Z,1.95
2019-02-17T04:33:54.980Z,1.94
2019-02-17T04:36:25.449Z,1.94
2019-02-17T04:38:55.958Z,1.90
2019-02-17T04:41:26.428Z,1.95
2019-02-17T04:43:56.941Z,1.94
2019-02-17T04:46:27.398Z,1.92
2019-02-17T04:48:57.896Z,1.90
2019-02-17T04:51:28.401Z,1.90
2019-02-17T04:53:59.057Z,1.91
2019-02-17T04:56:29.638Z,1.90
2019-02-17T04:59:00.104Z,1.90
2019-02-17T05:01:30.573Z,1.90
2019-02-17T05:04:01.188Z,1.90
2019-02-17T05:06:31.652Z,1.92
2019-02-17T05:09:02.153Z,1.89
2019-02-17T05:11:32.622Z,1.90
2019-02-17T05:14:03.094Z,1.81
2019-02-17T05:16:33.595Z,1.69
2019-02-17T05:19:04.059Z,1.69
2019-02-17T05:21:34.568Z,1.69
2019-02-17T05:24:05.040Z,1.73
2019-02-17T05:26:35.515Z,1.75
2019-02-17T05:29:06.023Z,1.75
2019-02-17T05:31:36.542Z,1.76
2019-02-17T05:34:07.083Z,1.77
2019-02-17T05:36:37.586Z,1.82
2019-02-17T05:39:08.088Z,1.85
2019-02-17T05:41:38.590Z,1.82
2019-02-17T05:44:09.053Z,1.83
2019-02-17T05:46:39.554Z,1.83
2019-02-17T05:49:10.063Z,1.82
2019-02-17T05:51:40.543Z,1.82
2019-02-17T05:54:11.050Z,1.00
2019-02-17T05:56:41.514Z,1.94
2019-02-17T05:59:12.025Z,2.07
2019-02-17T06:01:42.550Z,2.14
2019-02-17T06:04:13.015Z,2.14
2019-02-17T06:06:43.498Z,2.38
2019-02-17T06:09:13.978Z,2.38
2019-02-17T06:11:44.582Z,2.77
2019-02-17T06:14:15.043Z,2.93
2019-02-17T06:16:45.657Z,2.93
2019-02-17T06:19:17.790Z,3.11
2019-02-17T06:21:48.414Z,3.31
2019-02-17T06:24:18.921Z,3.16
2019-02-17T06:26:49.558Z,3.66
2019-02-17T06:29:20.077Z,3.77
2019-02-17T06:31:50.544Z,4.02
2019-02-17T06:34:21.065Z,4.22
2019-02-17T06:36:51.575Z,4.39
2019-02-17T06:39:22.087Z,4.52
2019-02-17T06:41:52.554Z,4.63
2019-02-17T06:44:23.062Z,4.77
2019-02-17T06:46:57.155Z,4.89
2019-02-17T06:49:27.619Z,4.99
2019-02-17T06:51:58.094Z,5.12
2019-02-17T06:54:28.612Z,5.32
2019-02-17T06:57:02.449Z,5.44
2019-02-17T06:59:32.955Z,5.55
2019-02-17T07:02:03.590Z,5.60
2019-02-17T07:04:55.999Z,5.59
2019-02-17T07:07:26.462Z,5.85
2019-02-17T07:09:57.182Z,5.82
2019-02-17T07:12:27.672Z,5.71
2019-02-17T07:14:58.138Z,5.94
2019-02-17T07:17:28.636Z,5.81
2019-02-17T07:19:59.087Z,6.07
2019-02-17T07:22:29.555Z,6.02
2019-02-17T07:25:00.019Z,6.29
2019-02-17T07:27:30.554Z,6.50
2019-02-17T07:30:01.010Z,6.63
2019-02-17T07:32:31.474Z,6.53
2019-02-17T07:35:01.989Z,6.60
2019-02-17T07:37:33.839Z,5.88
2019-02-17T07:40:04.469Z,6.85
2019-02-17T07:42:34.938Z,6.97
2019-02-17T07:45:05.779Z,7.11
2019-02-17T07:47:36.233Z,7.19
2019-02-17T07:50:07.454Z,7.19
2019-02-17T07:52:37.922Z,7.32
2019-02-17T07:55:09.013Z,7.51
2019-02-17T07:57:39.469Z,7.63
2019-02-17T08:00:10.275Z,7.64
2019-02-17T08:02:40.782Z,7.84
2019-02-17T08:05:11.392Z,7.98
2019-02-17T08:07:41.862Z,7.86
2019-02-17T08:10:12.474Z,8.11
2019-02-17T08:12:42.955Z,8.24
2019-02-17T08:15:13.668Z,8.34
2019-02-17T08:17:44.121Z,8.39
2019-02-17T08:20:14.634Z,8.22
2019-02-17T08:22:45.155Z,8.31
2019-02-17T08:25:21.699Z,8.35
2019-02-17T08:27:47.999Z,8.31
2019-02-17T08:30:18.625Z,8.30
2019-02-17T08:32:49.228Z,8.49
2019-02-17T08:35:19.637Z,8.36
2019-02-17T08:37:50.247Z,8.48
2019-02-17T08:40:20.733Z,8.54
2019-02-17T08:42:51.197Z,8.59
2019-02-17T08:45:21.697Z,8.52
2019-02-17T08:47:52.159Z,8.50
2019-02-17T08:50:22.631Z,8.52
2019-02-17T08:52:53.152Z,8.67
2019-02-17T08:55:23.623Z,8.57
2019-02-17T08:57:54.146Z,8.59
2019-02-17T09:00:24.614Z,8.59
2019-02-17T09:02:55.111Z,8.66
2019-02-17T09:05:25.592Z,8.85
2019-02-17T09:07:56.067Z,8.86
2019-02-17T09:10:26.542Z,8.98
2019-02-17T09:12:57.059Z,9.06
2019-02-17T09:15:27.581Z,9.13
2019-02-17T09:17:58.059Z,9.29
2019-02-17T09:20:28.579Z,9.41
2019-02-17T09:22:59.082Z,9.57
2019-02-17T09:25:29.593Z,9.71
2019-02-17T09:28:00.094Z,9.55
2019-02-17T09:30:30.603Z,9.66
2019-02-17T09:33:01.113Z,9.80
2019-02-17T09:35:31.633Z,9.90
2019-02-17T09:38:02.218Z,9.76
2019-02-17T09:40:32.731Z,9.98
2019-02-17T09:43:03.338Z,10.10
2019-02-17T09:45:33.823Z,10.14
2019-02-17T09:48:04.386Z,10.30
2019-02-17T09:50:34.896Z,10.34
2019-02-17T09:53:05.358Z,10.52
2019-02-17T09:55:35.875Z,10.61
2019-02-17T09:58:06.447Z,10.67
2019-02-17T10:00:36.953Z,10.79
2019-02-17T10:03:07.461Z,10.83
2019-02-17T10:05:37.941Z,10.81
2019-02-17T10:08:08.424Z,10.92
2019-02-17T10:10:38.910Z,10.90
2019-02-17T10:13:09.419Z,10.84
2019-02-17T10:15:39.945Z,10.96
2019-02-17T10:18:10.458Z,11.04
2019-02-17T10:20:40.931Z,11.21
2019-02-17T10:23:11.415Z,11.25
2019-02-17T10:25:41.942Z,11.36
2019-02-17T10:28:12.407Z,11.42
2019-02-17T10:30:42.991Z,11.38
2019-02-17T10:33:13.459Z,11.52
2019-02-17T10:35:43.978Z,11.54
2019-02-17T10:38:14.881Z,11.54
2019-02-17T10:40:45.388Z,11.66
2019-02-17T10:43:15.908Z,11.70
2019-02-17T10:45:46.395Z,11.73
2019-02-17T10:48:16.926Z,11.85
2019-02-17T10:50:47.443Z,11.76
2019-02-17T10:53:17.961Z,11.86
2019-02-17T10:55:48.426Z,11.94
2019-02-17T10:58:18.896Z,12.02
2019-02-17T11:00:49.426Z,12.04
2019-02-17T11:03:19.941Z,11.97
2019-02-17T11:05:50.513Z,12.08
2019-02-17T11:08:21.012Z,12.18
2019-02-17T11:10:51.483Z,12.26
2019-02-17T11:13:21.998Z,12.32
2019-02-17T11:15:52.455Z,12.36
2019-02-17T11:18:22.971Z,12.45
2019-02-17T11:20:53.513Z,12.54
2019-02-17T11:23:23.971Z,12.55
2019-02-17T11:25:54.442Z,12.62
2019-02-17T11:28:24.954Z,12.63
2019-02-17T11:30:55.548Z,12.72
2019-02-17T11:33:26.026Z,12.75
2019-02-17T11:35:56.646Z,12.86
2019-02-17T11:38:27.157Z,12.84
2019-02-17T11:40:57.623Z,12.87
2019-02-17T11:43:28.090Z,12.91
2019-02-17T11:45:58.555Z,12.83
2019-02-17T11:48:29.182Z,12.94
2019-02-17T11:50:59.763Z,13.03
2019-02-17T11:53:30.300Z,13.11
2019-02-17T11:56:00.816Z,13.13
2019-02-17T11:58:31.537Z,13.14
2019-02-17T12:01:02.049Z,13.17
2019-02-17T12:03:32.650Z,13.27
2019-02-17T12:06:03.106Z,13.35
2019-02-17T12:08:33.601Z,13.39
2019-02-17T12:11:04.100Z,13.43
2019-02-17T12:13:34.609Z,13.46
2019-02-17T12:16:05.117Z,13.46
2019-02-17T12:18:35.617Z,13.49
2019-02-17T12:21:17.843Z,13.54
2019-02-17T12:24:07.204Z,13.55
2019-02-17T12:26:56.504Z,13.60
2019-02-17T12:29:34.097Z,13.65
2019-02-17T12:32:04.649Z,13.68
2019-02-17T12:34:35.163Z,13.69
2019-02-17T12:37:05.672Z,13.69
2019-02-17T12:39:36.126Z,13.73
2019-02-17T12:42:06.625Z,13.75
2019-02-17T12:44:37.139Z,13.75
2019-02-17T12:47:07.605Z,13.77
2019-02-17T12:49:38.109Z,13.80
2019-02-17T12:52:08.560Z,13.86
2019-02-17T12:54:39.222Z,13.88
2019-02-17T12:57:09.689Z,13.91
2019-02-17T12:59:41.214Z,13.96
2019-02-17T13:02:11.773Z,13.91
2019-02-17T13:04:42.271Z,13.99
2019-02-17T13:07:12.732Z,14.05
2019-02-17T13:09:43.253Z,14.06
2019-02-17T13:12:13.717Z,14.10
2019-02-17T13:14:44.182Z,14.17
2019-02-17T13:17:14.771Z,14.20
2019-02-17T13:19:45.231Z,14.23
2019-02-17T13:22:15.685Z,14.27
2019-02-17T13:24:46.145Z,14.30
2019-02-17T13:27:16.593Z,14.33
2019-02-17T13:29:47.097Z,14.35
2019-02-17T13:32:17.552Z,14.39
2019-02-17T13:34:48.122Z,14.43
2019-02-17T13:37:18.636Z,14.42
2019-02-17T13:39:49.113Z,14.39
2019-02-17T13:42:19.625Z,14.46
2019-02-17T13:44:50.127Z,14.50
2019-02-17T13:47:20.633Z,14.50
2019-02-17T13:49:51.085Z,14.49
2019-02-17T13:52:21.574Z,14.52
2019-02-17T13:54:52.091Z,14.53
2019-02-17T13:57:22.612Z,14.55
2019-02-17T13:59:53.127Z,14.56
2019-02-17T14:02:23.599Z,14.57
2019-02-17T14:04:54.117Z,14.59
2019-02-17T14:07:24.592Z,14.56
2019-02-17T14:09:55.049Z,14.48
2019-02-17T14:12:25.573Z,14.51
2019-02-17T14:14:56.037Z,14.51
2019-02-17T14:17:26.487Z,14.48
2019-02-17T14:19:56.994Z,14.47
2019-02-17T14:22:27.451Z,14.48
2019-02-17T14:24:57.956Z,14.47
2019-02-17T14:27:28.432Z,14.46
2019-02-17T14:29:58.922Z,14.44
2019-02-17T14:32:29.375Z,14.40
2019-02-17T14:34:59.835Z,14.40
2019-02-17T14:37:30.348Z,14.40
2019-02-17T14:40:00.872Z,14.36
2019-02-17T14:42:31.519Z,14.35
2019-02-17T14:45:01.991Z,14.31
2019-02-17T14:47:32.458Z,14.32
2019-02-17T14:50:02.959Z,14.27
2019-02-17T14:52:33.527Z,14.25
2019-02-17T14:55:04.163Z,14.25
2019-02-17T14:57:34.637Z,14.21
2019-02-17T15:00:05.796Z,14.10
2019-02-17T15:02:36.312Z,14.11
2019-02-17T15:05:06.954Z,14.09
2019-02-17T15:07:37.573Z,14.06
2019-02-17T15:10:08.930Z,14.04
2019-02-17T15:12:39.456Z,13.99
2019-02-17T15:15:10.268Z,13.95
2019-02-17T15:17:40.739Z,13.90
2019-02-17T15:20:12.526Z,13.86
2019-02-17T15:22:43.038Z,13.81
2019-02-17T15:25:13.622Z,13.78
2019-02-17T15:27:44.143Z,13.73
2019-02-17T15:30:15.083Z,13.67
2019-02-17T15:32:45.604Z,13.62
2019-02-17T15:35:16.072Z,13.56
2019-02-17T15:37:46.653Z,13.45
2019-02-17T15:40:17.258Z,13.36
2019-02-17T15:42:47.791Z,13.28
2019-02-17T15:45:18.404Z,13.22
2019-02-17T15:47:48.913Z,13.12
2019-02-17T15:50:19.410Z,13.05
2019-02-17T15:52:49.903Z,12.97
2019-02-17T15:55:20.424Z,12.87
2019-02-17T15:57:50.940Z,12.79
2019-02-17T16:00:21.533Z,12.68
2019-02-17T16:02:52.045Z,12.58
2019-02-17T16:05:22.513Z,12.48
2019-02-17T16:07:53.097Z,12.38
2019-02-17T16:10:23.614Z,12.27
2019-02-17T16:12:54.127Z,12.16
2019-02-17T16:15:24.769Z,12.06
2019-02-17T16:17:55.293Z,11.93
2019-02-17T16:20:25.758Z,11.84
2019-02-17T16:22:56.231Z,11.74
2019-02-17T16:25:26.738Z,11.63
2019-02-17T16:27:57.211Z,11.52
2019-02-17T16:30:27.717Z,11.42
2019-02-17T16:32:58.171Z,11.33
2019-02-17T16:35:28.686Z,11.19
2019-02-17T16:37:59.212Z,11.10
2019-02-17T16:40:29.693Z,11.04
2019-02-17T16:43:00.220Z,10.97
2019-02-17T16:45:30.848Z,10.88
2019-02-17T16:48:01.321Z,10.80
2019-02-17T16:50:31.967Z,10.72
2019-02-17T16:53:02.443Z,10.64
2019-02-17T16:55:33.070Z,10.53
2019-02-17T16:58:03.585Z,10.43
2019-02-17T17:00:34.129Z,10.33
2019-02-17T17:03:05.103Z,10.23
2019-02-17T17:05:35.579Z,10.13
2019-02-17T17:08:06.196Z,10.02
2019-02-17T17:10:36.661Z,9.91
2019-02-17T17:13:07.183Z,9.85
2019-02-17T17:15:37.637Z,9.80
2019-02-17T17:18:08.209Z,9.74
2019-02-17T17:20:38.833Z,9.71
2019-02-17T17:23:09.339Z,9.66
2019-02-17T17:25:40.064Z,9.60
2019-02-17T17:28:10.569Z,9.53
2019-02-17T17:30:41.133Z,9.47
2019-02-17T17:33:11.653Z,9.40
2019-02-17T17:35:42.124Z,9.34
2019-02-17T17:38:12.586Z,9.29
2019-02-17T17:40:43.108Z,9.24
2019-02-17T17:43:13.578Z,9.19
2019-02-17T17:45:44.043Z,9.14
2019-02-17T17:48:14.542Z,9.10
2019-02-17T17:50:45.078Z,8.99
2019-02-17T17:53:15.543Z,8.92
2019-02-17T17:55:46.057Z,8.98
2019-02-17T17:58:16.527Z,8.92
2019-02-17T18:00:47.081Z,8.86
2019-02-17T18:03:17.542Z,8.90
2019-02-17T18:05:48.058Z,8.90
2019-02-17T18:08:18.641Z,8.87
2019-02-17T18:10:49.106Z,8.82
2019-02-17T18:13:21.881Z,8.75
2019-02-17T18:15:51.822Z,8.71
2019-02-17T18:18:22.291Z,8.65
2019-02-17T18:20:52.766Z,8.61
2019-02-17T18:23:23.234Z,8.56
2019-02-17T18:25:53.729Z,8.49
2019-02-17T18:28:24.242Z,8.51
2019-02-17T18:30:54.758Z,8.50
2019-02-17T18:33:25.225Z,8.50
2019-02-17T18:35:55.755Z,8.50
2019-02-17T18:38:26.213Z,8.50
2019-02-17T18:40:56.754Z,8.49
2019-02-17T18:43:27.221Z,8.47
2019-02-17T18:45:57.690Z,8.45
2019-02-17T18:48:28.202Z,8.41
2019-02-17T18:50:59.443Z,8.34
2019-02-17T18:53:30.069Z,8.29
2019-02-17T18:56:00.527Z,8.20
2019-02-17T18:58:31.080Z,8.17
2019-02-17T19:01:01.611Z,8.21
2019-02-17T19:03:32.135Z,8.21
2019-02-17T19:06:02.648Z,8.31
2019-02-17T19:08:33.159Z,8.41
2019-02-17T19:11:03.670Z,8.51
2019-02-17T19:13:34.129Z,8.60
2019-02-17T19:16:04.742Z,8.63
2019-02-17T19:18:35.274Z,8.72
2019-02-17T19:21:05.863Z,8.78
2019-02-17T19:23:36.329Z,8.82
2019-02-17T19:26:06.804Z,8.85
2019-02-17T19:28:37.323Z,8.83
2019-02-17T19:31:07.786Z,8.88
2019-02-17T19:33:38.300Z,8.89
2019-02-17T19:36:08.772Z,8.84
2019-02-17T19:38:39.282Z,8.87
2019-02-17T19:41:09.754Z,8.83
2019-02-17T19:43:40.264Z,8.89
2019-02-17T19:46:10.781Z,8.97
2019-02-17T19:48:41.294Z,9.01
2019-02-17T19:51:11.753Z,8.98
2019-02-17T19:53:42.267Z,8.99
2019-02-17T19:56:12.838Z,8.94
2019-02-17T19:58:43.321Z,8.90
2019-02-17T20:01:13.785Z,8.84
2019-02-17T20:03:54.122Z,8.78
2019-02-17T20:06:25.886Z,8.71
2019-02-17T20:08:56.493Z,8.58
2019-02-17T20:11:27.046Z,8.48
2019-02-17T20:13:57.509Z,8.37
2019-02-17T20:16:28.056Z,8.24
2019-02-17T20:18:58.582Z,8.10
2019-02-17T20:21:29.094Z,8.00
2019-02-17T20:23:59.613Z,7.87
2019-02-17T20:26:30.186Z,7.76
2019-02-17T20:29:00.663Z,7.65
2019-02-17T20:31:31.269Z,7.55
2019-02-17T20:34:01.792Z,7.43
2019-02-17T20:36:32.261Z,7.34
2019-02-17T20:39:02.867Z,7.26
2019-02-17T20:41:33.453Z,7.19
2019-02-17T20:44:03.919Z,7.12
2019-02-17T20:46:34.428Z,7.05
2019-02-17T20:49:04.915Z,6.98
2019-02-17T20:51:35.420Z,6.91
2019-02-17T20:54:05.981Z,6.85
2019-02-17T20:56:36.554Z,6.79
2019-02-17T20:59:07.080Z,6.75
2019-02-17T21:01:37.695Z,6.69
2019-02-17T21:04:08.215Z,6.61
2019-02-17T21:06:38.835Z,6.57
2019-02-17T21:09:09.332Z,6.50
2019-02-17T21:11:39.792Z,6.42
2019-02-17T21:14:10.327Z,6.39
2019-02-17T21:16:40.838Z,6.29
2019-02-17T21:19:11.306Z,6.27
2019-02-17T21:21:41.778Z,6.22
2019-02-17T21:24:12.301Z,6.23
2019-02-17T21:26:42.761Z,6.20
2019-02-17T21:29:13.274Z,6.21
2019-02-17T21:31:43.834Z,6.20
2019-02-17T21:34:14.370Z,6.20
2019-02-17T21:36:44.817Z,6.21
2019-02-17T21:39:15.265Z,6.20
2019-02-17T21:41:45.786Z,6.19
2019-02-17T21:44:16.772Z,6.16
2019-02-17T21:46:47.188Z,6.15
2019-02-17T21:49:17.709Z,6.15
2019-02-17T21:51:48.168Z,6.14
2019-02-17T21:54:18.621Z,6.12
2019-02-17T21:56:49.148Z,6.08
2019-02-17T21:59:19.657Z,6.07
2019-02-17T22:01:50.122Z,6.04
2019-02-17T22:04:20.646Z,6.02
2019-02-17T22:06:51.173Z,6.00
2019-02-17T22:09:21.641Z,5.99
2019-02-17T22:11:52.145Z,5.99
2019-02-17T22:14:22.598Z,5.98
2019-02-17T22:16:53.097Z,5.96
2019-02-17T22:19:23.564Z,5.95
2019-02-17T22:21:54.076Z,5.92
2019-02-17T22:24:24.540Z,5.89
2019-02-17T22:26:55.053Z,5.88
2019-02-17T22:29:25.605Z,5.85
2019-02-17T22:31:56.074Z,5.83
2019-02-17T22:34:26.588Z,5.79
2019-02-17T22:36:57.042Z,5.72
2019-02-17T22:39:27.564Z,5.64
2019-02-17T22:41:58.074Z,5.63
2019-02-17T22:44:28.581Z,5.54
2019-02-17T22:46:59.054Z,5.51
2019-02-17T22:49:29.513Z,5.52
2019-02-17T22:52:00.370Z,5.50
2019-02-17T22:54:30.825Z,5.49
2019-02-17T22:57:01.341Z,5.44
2019-02-17T22:59:31.818Z,5.43
2019-02-17T23:02:02.410Z,5.41
2019-02-17T23:04:32.977Z,5.41
2019-02-17T23:07:03.576Z,5.38
2019-02-17T23:09:34.186Z,5.41
2019-02-17T23:12:04.829Z,5.42
2019-02-17T23:14:35.345Z,5.39
2019-02-17T23:17:05.858Z,5.39
2019-02-17T23:19:36.347Z,5.34
2019-02-17T23:22:06.820Z,5.34
2019-02-17T23:24:37.513Z,5.28
2019-02-17T23:27:08.124Z,5.28
2019-02-17T23:29:38.576Z,5.35
2019-02-17T23:32:09.072Z,5.35
2019-02-17T23:34:39.532Z,5.38
2019-02-17T23:37:10.045Z,5.38
2019-02-17T23:39:40.511Z,5.39
2019-02-17T23:42:11.035Z,5.35
2019-02-17T23:44:41.490Z,5.35
2019-02-17T23:47:11.997Z,5.33
2019-02-17T23:49:42.470Z,5.23
2019-02-17T23:52:13.078Z,5.20
2019-02-17T23:54:43.542Z,5.13
2019-02-17T23:57:14.045Z,5.13
2019-02-17T23:59:44.559Z,5.15
